Weather at Bjedstrup Airstrip

Public forecast

Using degrees Celsius for public forecast. Weather courtesy of forecast.io.

Closest aviation weather report (METAR) to Bjedstrup Airstrip

Closest report is Karup Airport, 28.3 nm (52.4 km) WNW. Retrieved 2020/12/03 06:20 UTC (0 seconds ago):

EKKA 030620Z AUTO 14011KT 110V180 8000 OVC010/// 02/01 Q1001 TEMPO 3000 -RASN BKN008

Closest aviation forecast (TAF) to Bjedstrup Airstrip

Closest forecast is Karup Airport, 28.3 nm (52.4 km) WNW. Retrieved 2020/12/03 06:30 UTC (0 seconds ago):

TAF EKKA 030518Z 0306/0406 15012KT 8000 SCT012 BKN020 TEMPO 0306/0406 3000 -RASN BR BKN006